Map

Track Data

SID SEASON NUMBER BASIN SUBBASIN NAME ISO_TIME NATURE LAT LON WMO_WIND WMO_PRES WMO_AGENCY TRACK_TYPE DIST2LAND LANDFALL IFLAG USA_AGENCY USA_ATCF_ID USA_LAT USA_LON USA_RECORD USA_STATUS USA_WIND USA_PRES USA_SSHS USA_R34_NE USA_R34_SE USA_R34_SW USA_R34_NW USA_R50_NE USA_R50_SE USA_R50_SW USA_R50_NW USA_R64_NE USA_R64_SE USA_R64_SW USA_R64_NW USA_POCI USA_ROCI USA_RMW USA_EYE TOKYO_LAT TOKYO_LON TOKYO_GRADE TOKYO_WIND TOKYO_PRES TOKYO_R50_DIR TOKYO_R50_LONG TOKYO_R50_SHORT TOKYO_R30_DIR TOKYO_R30_LONG TOKYO_R30_SHORT TOKYO_LAND CMA_LAT CMA_LON CMA_CAT CMA_WIND CMA_PRES HKO_LAT HKO_LON HKO_CAT HKO_WIND HKO_PRES NEWDELHI_LAT NEWDELHI_LON NEWDELHI_GRADE NEWDELHI_WIND NEWDELHI_PRES NEWDELHI_CI NEWDELHI_DP NEWDELHI_POCI REUNION_LAT REUNION_LON REUNION_TYPE REUNION_WIND REUNION_PRES REUNION_TNUM REUNION_CI REUNION_RMW REUNION_R34_NE REUNION_R34_SE REUNION_R34_SW REUNION_R34_NW REUNION_R50_NE REUNION_R50_SE REUNION_R50_SW REUNION_R50_NW REUNION_R64_NE REUNION_R64_SE REUNION_R64_SW REUNION_R64_NW BOM_LAT BOM_LON BOM_TYPE BOM_WIND BOM_PRES BOM_TNUM BOM_CI BOM_RMW BOM_R34_NE BOM_R34_SE BOM_R34_SW BOM_R34_NW BOM_R50_NE BOM_R50_SE BOM_R50_SW BOM_R50_NW BOM_R64_NE BOM_R64_SE BOM_R64_SW BOM_R64_NW BOM_ROCI BOM_POCI BOM_EYE BOM_POS_METHOD BOM_PRES_METHOD NADI_LAT NADI_LON NADI_CAT NADI_WIND NADI_PRES WELLINGTON_LAT WELLINGTON_LON WELLINGTON_WIND WELLINGTON_PRES DS824_LAT DS824_LON DS824_STAGE DS824_WIND DS824_PRES TD9636_LAT TD9636_LON TD9636_STAGE TD9636_WIND TD9636_PRES TD9635_LAT TD9635_LON TD9635_WIND TD9635_PRES TD9635_ROCI NEUMANN_LAT NEUMANN_LON NEUMANN_CLASS NEUMANN_WIND NEUMANN_PRES MLC_LAT MLC_LON MLC_CLASS MLC_WIND MLC_PRES USA_GUST BOM_GUST BOM_GUST_PER REUNION_GUST REUNION_GUST_PER USA_SEAHGT USA_SEARAD_NE USA_SEARAD_SE USA_SEARAD_SW USA_SEARAD_NW STORM_SPEED STORM_DIR
1904100S15066 1904 9 SI MM NOT_NAMED 1904-04-09 00:00:00 TS -15.2000 66.3000 main 1063 1033 _________O____ -1 -15.2000 66.3000 TC 7 225
1904100S15066 1904 9 SI MM NOT_NAMED 1904-04-09 03:00:00 TS -15.4501 66.0401 main 1018 988 _________P____ -1 -15.4501 66.0401 TC 7 224
1904100S15066 1904 9 SI MM NOT_NAMED 1904-04-09 06:00:00 TS -15.7000 65.8000 main 988 958 _________O____ -1 -15.7000 65.8000 TC 7 221
1904100S15066 1904 9 SI MM NOT_NAMED 1904-04-09 09:00:00 TS -15.9500 65.5924 main 958 923 _________P____ -1 -15.9500 65.5924 TC 6 218
1904100S15066 1904 9 SI MM NOT_NAMED 1904-04-09 12:00:00 TS -16.2000 65.4000 main 923 893 _________O____ -1 -16.2000 65.4000 TC 6 217
1904100S15066 1904 9 SI MM NOT_NAMED 1904-04-09 15:00:00 TS -16.4425 65.1999 main 893 858 _________P____ -1 -16.4425 65.1999 TC 6 218
1904100S15066 1904 9 SI MM NOT_NAMED 1904-04-09 18:00:00 TS -16.7000 65.0000 main 858 824 _________O____ -1 -16.7000 65.0000 TC 7 215
1904100S15066 1904 9 SI MM NOT_NAMED 1904-04-09 21:00:00 TS -17.0000 64.8000 main 824 790 _________P____ -1 -17.0000 64.8000 TC 7 212
1904100S15066 1904 9 SI MM NOT_NAMED 1904-04-10 00:00:00 TS -17.3000 64.6000 main 790 761 _________O____ -1 -17.3000 64.6000 TC 7 215
1904100S15066 1904 9 SI MM NOT_NAMED 1904-04-10 03:00:00 TS -17.5500 64.3924 main 761 728 _________P____ -1 -17.5500 64.3924 TC 6 217
1904100S15066 1904 9 SI MM NOT_NAMED 1904-04-10 06:00:00 TS -17.8000 64.2000 main 728 705 _________O____ -1 -17.8000 64.2000 TC 6 212
1904100S15066 1904 9 SI MM NOT_NAMED 1904-04-10 09:00:00 TS -18.0850 64.0424 main 695 674 _________P____ -1 -18.0850 64.0424 TC 7 205
1904100S15066 1904 9 SI MM NOT_NAMED 1904-04-10 12:00:00 TS -18.4000 63.9000 main 674 643 _________O____ -1 -18.4000 63.9000 TC 7 204
1904100S15066 1904 9 SI MM NOT_NAMED 1904-04-10 15:00:00 TS -18.7425 63.7351 main 643 621 _________P____ -1 -18.7425 63.7351 TC 8 202
1904100S15066 1904 9 SI MM NOT_NAMED 1904-04-10 18:00:00 TS -19.1000 63.6000 main 621 604 _________O____ -1 -19.1000 63.6000 TC 7 198
1904100S15066 1904 9 SI MM NOT_NAMED 1904-04-10 21:00:00 TS -19.4424 63.4977 main 604 597 _________P____ -1 -19.4424 63.4977 TC 7 188
1904100S15066 1904 9 SI MM NOT_NAMED 1904-04-11 00:00:00 TS -19.8000 63.5000 main 597 595 _________O____ -1 -19.8000 63.5000 TC 8 170
1904100S15066 1904 9 SI MM NOT_NAMED 1904-04-11 03:00:00 TS -20.1999 63.6400 main 605 605 _________P____ -1 -20.1999 63.6400 TC 9 155
1904100S15066 1904 9 SI MM NOT_NAMED 1904-04-11 06:00:00 TS -20.6000 63.9000 main 636 636 _________O____ -1 -20.6000 63.9000 TC 10 145
1904100S15066 1904 9 SI MM NOT_NAMED 1904-04-11 09:00:00 TS -20.9800 64.2274 main 670 670 _________P____ -1 -20.9800 64.2274 TC 10 137
1904100S15066 1904 9 SI MM NOT_NAMED 1904-04-11 12:00:00 TS -21.3000 64.6000 main 715 715 _________O____ -1 -21.3000 64.6000 TC 9 129
1904100S15066 1904 9 SI MM NOT_NAMED 1904-04-11 15:00:00 TS -21.5299 64.9502 main 759 759 _________P____ -1 -21.5299 64.9502 TC 8 122
1904100S15066 1904 9 SI MM NOT_NAMED 1904-04-11 18:00:00 TS -21.7000 65.3000 main 793 793 _________O____ -1 -21.7000 65.3000 TC 7 116
1904100S15066 1904 9 SI MM NOT_NAMED 1904-04-11 21:00:00 TS -21.8526 65.6498 main 828 828 _________P____ -1 -21.8526 65.6498 TC 7 115
1904100S15066 1904 9 SI MM NOT_NAMED 1904-04-12 00:00:00 TS -22.0000 66.0000 main 871 _________O____ -1 -22.0000 66.0000 TC 7 114

About IBTrACS Database

This database is a web-friendly format of International Best Track Archive for Climate Stewardship (IBTrACS), a global best track data archive curated by NOAA dating back to 1842.

Updated: 2021-12-01